sensor_id;sensor_type;location;lat;lon;timestamp;pressure;altitude;pressure_sealevel;temperature;humidity
29569;BME280;16501;51.462;14.346;2023-06-14T00:01:42;100209.34;;;13.79;79.25
29569;BME280;16501;51.462;14.346;2023-06-14T00:04:10;100202.78;;;13.62;79.42
29569;BME280;16501;51.462;14.346;2023-06-14T00:06:35;100220.53;;;13.68;80.08
29569;BME280;16501;51.462;14.346;2023-06-14T00:09:01;100239.41;;;13.88;80.00
29569;BME280;16501;51.462;14.346;2023-06-14T00:11:26;100230.41;;;13.84;80.13
29569;BME280;16501;51.462;14.346;2023-06-14T00:13:52;100213.47;;;13.78;80.19
29569;BME280;16501;51.462;14.346;2023-06-14T00:16:17;100220.31;;;13.71;79.84
29569;BME280;16501;51.462;14.346;2023-06-14T00:18:44;100236.00;;;13.78;80.62
29569;BME280;16501;51.462;14.346;2023-06-14T00:21:09;100236.50;;;13.76;80.15
29569;BME280;16501;51.462;14.346;2023-06-14T00:23:35;100231.56;;;13.71;79.95
29569;BME280;16501;51.462;14.346;2023-06-14T00:26:00;100241.91;;;13.80;79.10
29569;BME280;16501;51.462;14.346;2023-06-14T00:28:25;100224.50;;;13.55;79.70
29569;BME280;16501;51.462;14.346;2023-06-14T00:30:50;100224.28;;;13.59;78.72
29569;BME280;16501;51.462;14.346;2023-06-14T00:33:16;100210.53;;;13.46;78.75
29569;BME280;16501;51.462;14.346;2023-06-14T00:35:41;100231.16;;;13.58;79.58
29569;BME280;16501;51.462;14.346;2023-06-14T00:38:06;100222.66;;;13.52;80.23
29569;BME280;16501;51.462;14.346;2023-06-14T00:40:32;100218.28;;;13.51;79.75
29569;BME280;16501;51.462;14.346;2023-06-14T00:42:57;100200.72;;;13.36;81.42
29569;BME280;16501;51.462;14.346;2023-06-14T00:45:22;100221.47;;;13.38;82.38
29569;BME280;16501;51.462;14.346;2023-06-14T00:47:49;100196.53;;;13.11;82.95
29569;BME280;16501;51.462;14.346;2023-06-14T00:50:18;100231.47;;;13.39;83.35
29569;BME280;16501;51.462;14.346;2023-06-14T00:52:45;100210.06;;;13.27;82.72
29569;BME280;16501;51.462;14.346;2023-06-14T00:55:10;100211.19;;;13.35;81.62
29569;BME280;16501;51.462;14.346;2023-06-14T00:57:36;100220.97;;;13.40;81.40
29569;BME280;16501;51.462;14.346;2023-06-14T01:00:03;100211.53;;;13.23;82.70
29569;BME280;16501;51.462;14.346;2023-06-14T01:02:29;100197.22;;;13.06;84.76
29569;BME280;16501;51.462;14.346;2023-06-14T01:04:55;100195.97;;;13.07;85.65
29569;BME280;16501;51.462;14.346;2023-06-14T01:07:27;100219.22;;;13.22;85.61
29569;BME280;16501;51.462;14.346;2023-06-14T01:13:07;100222.91;;;12.93;89.93
29569;BME280;16501;51.462;14.346;2023-06-14T01:15:36;100196.41;;;12.64;90.72
29569;BME280;16501;51.462;14.346;2023-06-14T01:18:04;100209.41;;;12.61;91.74
29569;BME280;16501;51.462;14.346;2023-06-14T01:20:31;100204.16;;;12.69;91.83
29569;BME280;16501;51.462;14.346;2023-06-14T01:22:57;100204.47;;;12.56;92.14
29569;BME280;16501;51.462;14.346;2023-06-14T01:25:22;100207.16;;;12.66;92.35
29569;BME280;16501;51.462;14.346;2023-06-14T01:27:49;100194.00;;;12.57;92.56
29569;BME280;16501;51.462;14.346;2023-06-14T01:30:16;100208.34;;;12.59;92.53
29569;BME280;16501;51.462;14.346;2023-06-14T01:32:42;100211.75;;;12.48;93.68
29569;BME280;16501;51.462;14.346;2023-06-14T01:35:08;100221.72;;;12.64;93.78
29569;BME280;16501;51.462;14.346;2023-06-14T01:37:33;100202.34;;;12.51;93.42
29569;BME280;16501;51.462;14.346;2023-06-14T01:39:59;100206.56;;;12.11;94.60
29569;BME280;16501;51.462;14.346;2023-06-14T01:42:25;100198.72;;;12.30;94.63
29569;BME280;16501;51.462;14.346;2023-06-14T01:44:51;100219.03;;;12.40;95.30
29569;BME280;16501;51.462;14.346;2023-06-14T01:47:17;100219.22;;;12.51;94.51
29569;BME280;16501;51.462;14.346;2023-06-14T01:49:42;100215.34;;;12.49;93.94
29569;BME280;16501;51.462;14.346;2023-06-14T01:52:08;100226.66;;;12.69;93.21
29569;BME280;16501;51.462;14.346;2023-06-14T01:54:35;100203.25;;;12.42;93.58
29569;BME280;16501;51.462;14.346;2023-06-14T01:57:03;100207.22;;;12.51;92.93
29569;BME280;16501;51.462;14.346;2023-06-14T01:59:28;100223.97;;;12.60;92.45
29569;BME280;16501;51.462;14.346;2023-06-14T02:01:53;100212.44;;;12.43;92.86
29569;BME280;16501;51.462;14.346;2023-06-14T02:04:19;100198.88;;;12.41;93.09
29569;BME280;16501;51.462;14.346;2023-06-14T02:06:44;100217.72;;;12.20;94.98
29569;BME280;16501;51.462;14.346;2023-06-14T02:09:09;100221.97;;;12.31;95.03
29569;BME280;16501;51.462;14.346;2023-06-14T02:11:34;100206.75;;;12.22;94.92
29569;BME280;16501;51.462;14.346;2023-06-14T02:14:00;100211.72;;;12.13;95.71
29569;BME280;16501;51.462;14.346;2023-06-14T02:16:26;100195.44;;;12.02;95.46
29569;BME280;16501;51.462;14.346;2023-06-14T02:18:53;100219.44;;;11.88;96.00
29569;BME280;16501;51.462;14.346;2023-06-14T02:21:19;100233.44;;;11.73;97.54
29569;BME280;16501;51.462;14.346;2023-06-14T02:23:44;100239.06;;;11.73;97.98
29569;BME280;16501;51.462;14.346;2023-06-14T02:26:09;100217.88;;;11.72;97.35
29569;BME280;16501;51.462;14.346;2023-06-14T02:28:34;100232.00;;;11.78;97.17
29569;BME280;16501;51.462;14.346;2023-06-14T02:31:00;100222.72;;;11.86;96.57
29569;BME280;16501;51.462;14.346;2023-06-14T02:33:26;100208.69;;;11.86;96.68
29569;BME280;16501;51.462;14.346;2023-06-14T02:35:51;100220.50;;;11.91;96.91
29569;BME280;16501;51.462;14.346;2023-06-14T02:38:17;100232.91;;;12.14;96.30
29569;BME280;16501;51.462;14.346;2023-06-14T02:40:43;100215.00;;;12.11;95.36
29569;BME280;16501;51.462;14.346;2023-06-14T02:43:08;100229.16;;;12.02;95.82
29569;BME280;16501;51.462;14.346;2023-06-14T02:45:33;100189.00;;;11.86;95.98
29569;BME280;16501;51.462;14.346;2023-06-14T02:47:59;100225.06;;;12.03;96.38
29569;BME280;16501;51.462;14.346;2023-06-14T02:50:24;100224.69;;;12.10;95.43
29569;BME280;16501;51.462;14.346;2023-06-14T02:52:49;100211.31;;;12.05;95.38
29569;BME280;16501;51.462;14.346;2023-06-14T02:55:15;100244.41;;;11.86;97.53
29569;BME280;16501;51.462;14.346;2023-06-14T02:57:40;100221.09;;;11.95;96.50
29569;BME280;16501;51.462;14.346;2023-06-14T03:00:06;100241.56;;;11.95;96.20
29569;BME280;16501;51.462;14.346;2023-06-14T03:02:34;100214.59;;;11.88;96.00
29569;BME280;16501;51.462;14.346;2023-06-14T03:05:00;100236.22;;;11.97;96.02
29569;BME280;16501;51.462;14.346;2023-06-14T03:07:27;100236.22;;;11.97;96.09
29569;BME280;16501;51.462;14.346;2023-06-14T03:09:52;100231.09;;;11.96;95.04
29569;BME280;16501;51.462;14.346;2023-06-14T03:12:18;100231.09;;;11.96;94.42
29569;BME280;16501;51.462;14.346;2023-06-14T03:14:43;100238.84;;;12.01;93.67
29569;BME280;16501;51.462;14.346;2023-06-14T03:17:11;100241.94;;;12.03;93.25
29569;BME280;16501;51.462;14.346;2023-06-14T03:19:36;100267.22;;;12.03;94.53
29569;BME280;16501;51.462;14.346;2023-06-14T03:22:02;100259.06;;;11.90;95.50
29569;BME280;16501;51.462;14.346;2023-06-14T03:24:27;100248.78;;;11.87;95.90
29569;BME280;16501;51.462;14.346;2023-06-14T03:26:53;100258.41;;;11.95;96.46
29569;BME280;16501;51.462;14.346;2023-06-14T03:29:19;100272.75;;;11.97;96.89
29569;BME280;16501;51.462;14.346;2023-06-14T03:32:01;100249.25;;;11.70;97.51
29569;BME280;16501;51.462;14.346;2023-06-14T03:34:27;100264.06;;;11.71;97.85
29569;BME280;16501;51.462;14.346;2023-06-14T03:36:52;100251.63;;;11.63;97.77
29569;BME280;16501;51.462;14.346;2023-06-14T03:39:18;100253.97;;;11.64;97.29
29569;BME280;16501;51.462;14.346;2023-06-14T03:41:43;100260.88;;;11.78;96.98
29569;BME280;16501;51.462;14.346;2023-06-14T03:44:09;100266.19;;;11.76;96.66
29569;BME280;16501;51.462;14.346;2023-06-14T03:46:34;100271.72;;;11.70;97.51
29569;BME280;16501;51.462;14.346;2023-06-14T03:48:59;100261.69;;;11.55;98.53
29569;BME280;16501;51.462;14.346;2023-06-14T03:51:25;100267.25;;;11.64;98.67
29569;BME280;16501;51.462;14.346;2023-06-14T03:53:51;100295.91;;;11.68;99.80
29569;BME280;16501;51.462;14.346;2023-06-14T03:56:16;100282.72;;;11.59;100.00
29569;BME280;16501;51.462;14.346;2023-06-14T03:58:41;100287.38;;;11.62;100.00
29569;BME280;16501;51.462;14.346;2023-06-14T04:01:06;100287.78;;;11.70;100.00
29569;BME280;16501;51.462;14.346;2023-06-14T04:03:32;100246.56;;;11.52;100.00
29569;BME280;16501;51.462;14.346;2023-06-14T04:06:00;100316.50;;;11.89;100.00
29569;BME280;16501;51.462;14.346;2023-06-14T04:08:25;100299.25;;;11.81;99.99
29569;BME280;16501;51.462;14.346;2023-06-14T04:10:51;100291.47;;;11.76;99.89
29569;BME280;16501;51.462;14.346;2023-06-14T04:13:16;100292.91;;;11.72;100.00
29569;BME280;16501;51.462;14.346;2023-06-14T04:15:42;100300.50;;;11.80;100.00
29569;BME280;16501;51.462;14.346;2023-06-14T04:18:08;100297.69;;;11.80;100.00
29569;BME280;16501;51.462;14.346;2023-06-14T04:20:34;100293.44;;;11.85;100.00
29569;BME280;16501;51.462;14.346;2023-06-14T04:23:11;100299.09;;;12.00;100.00
29569;BME280;16501;51.462;14.346;2023-06-14T04:25:37;100302.09;;;11.96;100.00
29569;BME280;16501;51.462;14.346;2023-06-14T04:28:02;100293.25;;;11.88;100.00
29569;BME280;16501;51.462;14.346;2023-06-14T04:30:29;100284.94;;;11.94;100.00
29569;BME280;16501;51.462;14.346;2023-06-14T04:32:56;100297.56;;;11.99;100.00
29569;BME280;16501;51.462;14.346;2023-06-14T04:35:21;100317.75;;;12.12;100.00
29569;BME280;16501;51.462;14.346;2023-06-14T04:37:49;100315.09;;;12.08;100.00
29569;BME280;16501;51.462;14.346;2023-06-14T04:40:14;100329.75;;;12.27;99.55
29569;BME280;16501;51.462;14.346;2023-06-14T04:42:40;100322.78;;;12.23;99.67
29569;BME280;16501;51.462;14.346;2023-06-14T04:45:06;100328.50;;;12.29;99.47
29569;BME280;16501;51.462;14.346;2023-06-14T04:47:32;100327.06;;;12.33;100.00
29569;BME280;16501;51.462;14.346;2023-06-14T04:49:57;100314.84;;;12.36;99.71
29569;BME280;16501;51.462;14.346;2023-06-14T04:52:23;100329.09;;;12.48;100.00
29569;BME280;16501;51.462;14.346;2023-06-14T04:54:53;100311.25;;;12.36;98.84
29569;BME280;16501;51.462;14.346;2023-06-14T04:57:22;100317.78;;;12.42;98.23
29569;BME280;16501;51.462;14.346;2023-06-14T04:59:50;100337.34;;;12.51;97.89
29569;BME280;16501;51.462;14.346;2023-06-14T05:02:20;100341.22;;;12.54;98.47
29569;BME280;16501;51.462;14.346;2023-06-14T05:04:45;100330.94;;;12.66;98.58
29569;BME280;16501;51.462;14.346;2023-06-14T05:07:12;100328.59;;;12.79;98.13
29569;BME280;16501;51.462;14.346;2023-06-14T05:09:39;100316.75;;;12.75;97.95
29569;BME280;16501;51.462;14.346;2023-06-14T05:12:05;100329.78;;;12.87;97.32
29569;BME280;16501;51.462;14.346;2023-06-14T05:14:35;100340.00;;;13.05;96.75
29569;BME280;16501;51.462;14.346;2023-06-14T05:17:01;100341.06;;;13.08;96.84
29569;BME280;16501;51.462;14.346;2023-06-14T05:19:27;100351.16;;;13.14;95.79
29569;BME280;16501;51.462;14.346;2023-06-14T05:21:53;100336.09;;;13.17;95.03
29569;BME280;16501;51.462;14.346;2023-06-14T05:24:18;100337.47;;;13.22;95.40
29569;BME280;16501;51.462;14.346;2023-06-14T05:26:44;100311.25;;;13.16;94.64
29569;BME280;16501;51.462;14.346;2023-06-14T05:29:10;100341.66;;;13.47;93.50
29569;BME280;16501;51.462;14.346;2023-06-14T05:31:35;100330.41;;;13.47;93.62
29569;BME280;16501;51.462;14.346;2023-06-14T05:34:00;100342.94;;;13.67;93.13
29569;BME280;16501;51.462;14.346;2023-06-14T05:36:26;100341.25;;;13.54;92.65
29569;BME280;16501;51.462;14.346;2023-06-14T05:38:52;100294.53;;;13.27;92.68
29569;BME280;16501;51.462;14.346;2023-06-14T05:41:31;100324.97;;;13.44;93.35
29569;BME280;16501;51.462;14.346;2023-06-14T05:43:56;100309.84;;;13.41;92.60
29569;BME280;16501;51.462;14.346;2023-06-14T05:46:22;100311.88;;;13.61;91.96
29569;BME280;16501;51.462;14.346;2023-06-14T05:48:51;100304.78;;;13.45;92.40
29569;BME280;16501;51.462;14.346;2023-06-14T05:51:16;100326.38;;;13.54;91.76
29569;BME280;16501;51.462;14.346;2023-06-14T05:53:45;100341.63;;;13.62;92.75
29569;BME280;16501;51.462;14.346;2023-06-14T05:56:11;100327.31;;;13.45;91.90
29569;BME280;16501;51.462;14.346;2023-06-14T05:58:36;100302.66;;;13.25;92.58
29569;BME280;16501;51.462;14.346;2023-06-14T06:01:02;100341.63;;;13.62;93.20
29569;BME280;16501;51.462;14.346;2023-06-14T06:03:27;100300.31;;;13.38;92.87
29569;BME280;16501;51.462;14.346;2023-06-14T06:05:54;100299.16;;;13.30;93.96
29569;BME280;16501;51.462;14.346;2023-06-14T06:08:20;100279.59;;;13.21;92.83
29569;BME280;16501;51.462;14.346;2023-06-14T06:10:46;100346.44;;;13.62;93.88
29569;BME280;16501;51.462;14.346;2023-06-14T06:13:11;100333.72;;;13.66;94.06
29569;BME280;16501;51.462;14.346;2023-06-14T06:15:40;100353.88;;;13.80;94.56
29569;BME280;16501;51.462;14.346;2023-06-14T06:18:05;100323.56;;;13.54;94.61
29569;BME280;16501;51.462;14.346;2023-06-14T06:20:31;100322.59;;;13.57;92.64
29569;BME280;16501;51.462;14.346;2023-06-14T06:23:00;100348.94;;;13.74;93.31
29569;BME280;16501;51.462;14.346;2023-06-14T06:25:26;100342.94;;;13.67;93.31
29569;BME280;16501;51.462;14.346;2023-06-14T06:27:53;100326.53;;;13.65;92.12
29569;BME280;16501;51.462;14.346;2023-06-14T06:30:19;100309.97;;;13.52;92.44
29569;BME280;16501;51.462;14.346;2023-06-14T06:32:44;100336.97;;;13.80;93.87
29569;BME280;16501;51.462;14.346;2023-06-14T06:35:09;100364.28;;;13.94;93.42
29569;BME280;16501;51.462;14.346;2023-06-14T06:37:36;100363.22;;;13.91;92.48
29569;BME280;16501;51.462;14.346;2023-06-14T06:40:02;100319.63;;;13.66;92.97
29569;BME280;16501;51.462;14.346;2023-06-14T06:42:29;100380.06;;;14.06;92.86
29569;BME280;16501;51.462;14.346;2023-06-14T06:44:54;100364.00;;;14.12;92.67
29569;BME280;16501;51.462;14.346;2023-06-14T06:47:19;100382.44;;;14.13;91.23
29569;BME280;16501;51.462;14.346;2023-06-14T06:49:45;100382.72;;;14.15;91.26
29569;BME280;16501;51.462;14.346;2023-06-14T06:52:10;100317.03;;;13.83;91.41
29569;BME280;16501;51.462;14.346;2023-06-14T06:54:35;100295.03;;;13.67;91.11
29569;BME280;16501;51.462;14.346;2023-06-14T06:57:01;100303.28;;;13.70;90.46
29569;BME280;16501;51.462;14.346;2023-06-14T06:59:29;100361.50;;;14.20;89.54
29569;BME280;16501;51.462;14.346;2023-06-14T07:01:55;100377.44;;;14.23;90.96
29569;BME280;16501;51.462;14.346;2023-06-14T07:04:20;100333.84;;;13.98;91.50
29569;BME280;16501;51.462;14.346;2023-06-14T07:06:46;100360.16;;;14.15;89.43
29569;BME280;16501;51.462;14.346;2023-06-14T07:09:12;100338.97;;;14.00;89.79
29569;BME280;16501;51.462;14.346;2023-06-14T07:11:46;100358.84;;;14.11;90.45
29569;BME280;16501;51.462;14.346;2023-06-14T07:14:12;100390.94;;;14.40;91.15
29569;BME280;16501;51.462;14.346;2023-06-14T07:16:37;100356.31;;;14.13;90.28
29569;BME280;16501;51.462;14.346;2023-06-14T07:19:03;100359.34;;;14.09;88.26
29569;BME280;16501;51.462;14.346;2023-06-14T07:21:29;100400.34;;;14.31;88.43
29569;BME280;16501;51.462;14.346;2023-06-14T07:23:55;100386.50;;;14.33;87.83
29569;BME280;16501;51.462;14.346;2023-06-14T07:26:20;100357.34;;;14.15;86.26
29569;BME280;16501;51.462;14.346;2023-06-14T07:28:47;100396.06;;;14.62;87.25
29569;BME280;16501;51.462;14.346;2023-06-14T07:31:14;100378.44;;;14.46;85.92
29569;BME280;16501;51.462;14.346;2023-06-14T07:33:41;100396.31;;;14.58;84.64
29569;BME280;16501;51.462;14.346;2023-06-14T07:36:06;100382.53;;;14.45;85.19
29569;BME280;16501;51.462;14.346;2023-06-14T07:38:32;100391.63;;;14.55;86.79
29569;BME280;16501;51.462;14.346;2023-06-14T07:40:57;100375.00;;;14.37;85.89
29569;BME280;16501;51.462;14.346;2023-06-14T07:43:23;100403.66;;;14.56;87.61
29569;BME280;16501;51.462;14.346;2023-06-14T07:45:48;100360.53;;;14.23;86.28
29569;BME280;16501;51.462;14.346;2023-06-14T07:48:13;100394.38;;;14.49;87.77
29569;BME280;16501;51.462;14.346;2023-06-14T07:50:38;100418.16;;;14.63;87.13
29569;BME280;16501;51.462;14.346;2023-06-14T07:53:04;100362.50;;;14.43;86.26
29569;BME280;16501;51.462;14.346;2023-06-14T07:55:29;100405.22;;;14.77;87.11
29569;BME280;16501;51.462;14.346;2023-06-14T07:57:57;100403.47;;;14.85;86.55
29569;BME280;16501;51.462;14.346;2023-06-14T08:00:23;100406.63;;;14.93;85.71
29569;BME280;16501;51.462;14.346;2023-06-14T08:02:48;100402.69;;;14.85;86.70
29569;BME280;16501;51.462;14.346;2023-06-14T08:05:13;100382.34;;;14.75;85.95
29569;BME280;16501;51.462;14.346;2023-06-14T08:07:39;100412.84;;;15.03;85.51
29569;BME280;16501;51.462;14.346;2023-06-14T08:10:06;100386.16;;;14.72;84.88
29569;BME280;16501;51.462;14.346;2023-06-14T08:12:32;100405.09;;;14.98;84.74
29569;BME280;16501;51.462;14.346;2023-06-14T08:14:59;100405.94;;;15.04;86.51
29569;BME280;16501;51.462;14.346;2023-06-14T08:17:25;100420.66;;;15.14;85.47
29569;BME280;16501;51.462;14.346;2023-06-14T08:19:50;100390.44;;;14.94;85.71
29569;BME280;16501;51.462;14.346;2023-06-14T08:22:15;100373.59;;;14.73;85.94
29569;BME280;16501;51.462;14.346;2023-06-14T08:24:41;100429.22;;;15.25;84.71
29569;BME280;16501;51.462;14.346;2023-06-14T08:27:07;100384.72;;;15.14;82.70
29569;BME280;16501;51.462;14.346;2023-06-14T08:29:32;100415.09;;;15.62;83.85
29569;BME280;16501;51.462;14.346;2023-06-14T08:32:00;100403.75;;;16.06;83.54
29569;BME280;16501;51.462;14.346;2023-06-14T08:34:25;100395.09;;;16.32;81.12
29569;BME280;16501;51.462;14.346;2023-06-14T08:36:51;100431.94;;;16.54;78.78
29569;BME280;16501;51.462;14.346;2023-06-14T08:39:16;100417.06;;;16.65;79.04
29569;BME280;16501;51.462;14.346;2023-06-14T08:41:45;100423.03;;;16.90;77.17
29569;BME280;16501;51.462;14.346;2023-06-14T08:44:11;100401.91;;;16.91;76.38
29569;BME280;16501;51.462;14.346;2023-06-14T08:46:37;100403.44;;;17.03;76.13
29569;BME280;16501;51.462;14.346;2023-06-14T08:49:03;100366.88;;;16.71;75.12
29569;BME280;16501;51.462;14.346;2023-06-14T08:51:32;100358.63;;;16.62;73.07
29569;BME280;16501;51.462;14.346;2023-06-14T08:53:59;100384.88;;;16.68;73.55
29569;BME280;16501;51.462;14.346;2023-06-14T08:56:27;100394.47;;;17.10;72.64
29569;BME280;16501;51.462;14.346;2023-06-14T08:58:53;100408.81;;;17.46;72.26
29569;BME280;16501;51.462;14.346;2023-06-14T09:01:20;100361.22;;;17.28;71.94
29569;BME280;16501;51.462;14.346;2023-06-14T09:03:48;100403.94;;;17.52;72.15
29569;BME280;16501;51.462;14.346;2023-06-14T09:06:13;100355.00;;;17.41;70.27
29569;BME280;16501;51.462;14.346;2023-06-14T09:08:43;100347.28;;;17.19;70.00
29569;BME280;16501;51.462;14.346;2023-06-14T09:11:13;100370.75;;;17.02;71.61
29569;BME280;16501;51.462;14.346;2023-06-14T09:13:39;100406.56;;;17.28;73.32
29569;BME280;16501;51.462;14.346;2023-06-14T09:16:06;100407.56;;;17.25;71.81
29569;BME280;16501;51.462;14.346;2023-06-14T09:18:36;100405.78;;;17.22;71.49
29569;BME280;16501;51.462;14.346;2023-06-14T09:21:02;100393.41;;;16.85;73.13
29569;BME280;16501;51.462;14.346;2023-06-14T09:23:27;100384.88;;;16.51;74.14
29569;BME280;16501;51.462;14.346;2023-06-14T09:25:52;100367.03;;;16.23;76.93
29569;BME280;16501;51.462;14.346;2023-06-14T09:28:17;100380.66;;;16.13;77.55
29569;BME280;16501;51.462;14.346;2023-06-14T09:30:43;100404.88;;;16.25;79.41
29569;BME280;16501;51.462;14.346;2023-06-14T09:33:08;100401.22;;;16.19;80.37
29569;BME280;16501;51.462;14.346;2023-06-14T09:35:34;100427.00;;;16.32;80.15
29569;BME280;16501;51.462;14.346;2023-06-14T09:38:00;100412.53;;;16.08;80.87
29569;BME280;16501;51.462;14.346;2023-06-14T09:40:26;100436.97;;;16.16;82.80
29569;BME280;16501;51.462;14.346;2023-06-14T09:42:52;100406.28;;;15.98;82.72
29569;BME280;16501;51.462;14.346;2023-06-14T09:45:17;100382.31;;;15.82;83.00
29569;BME280;16501;51.462;14.346;2023-06-14T09:47:48;100408.09;;;15.95;83.02
29569;BME280;16501;51.462;14.346;2023-06-14T09:50:14;100359.59;;;15.65;83.83
29569;BME280;16501;51.462;14.346;2023-06-14T09:52:39;100431.28;;;16.11;83.82
29569;BME280;16501;51.462;14.346;2023-06-14T09:55:12;100410.72;;;16.10;83.53
29569;BME280;16501;51.462;14.346;2023-06-14T09:57:41;100432.66;;;16.32;83.05
29569;BME280;16501;51.462;14.346;2023-06-14T10:00:09;100419.59;;;16.46;82.61
29569;BME280;16501;51.462;14.346;2023-06-14T10:02:37;100410.63;;;16.70;82.58
29569;BME280;16501;51.462;14.346;2023-06-14T10:05:06;100414.53;;;16.84;77.08
29569;BME280;16501;51.462;14.346;2023-06-14T10:10:39;100423.25;;;17.43;75.14
29569;BME280;16501;51.462;14.346;2023-06-14T10:13:05;100398.78;;;17.45;73.39
29569;BME280;16501;51.462;14.346;2023-06-14T10:15:38;100384.84;;;17.53;72.05
29569;BME280;16501;51.462;14.346;2023-06-14T10:18:19;100397.72;;;17.60;69.82
29569;BME280;16501;51.462;14.346;2023-06-14T10:21:13;100372.53;;;17.33;70.58
29569;BME280;16501;51.462;14.346;2023-06-14T10:23:42;100391.81;;;17.46;70.89
29569;BME280;16501;51.462;14.346;2023-06-14T10:26:08;100396.16;;;17.59;72.88
29569;BME280;16501;51.462;14.346;2023-06-14T10:28:37;100385.66;;;17.37;70.48
29569;BME280;16501;51.462;14.346;2023-06-14T10:31:10;100397.78;;;17.26;71.24
29569;BME280;16501;51.462;14.346;2023-06-14T10:33:39;100408.09;;;17.29;72.31
29569;BME280;16501;51.462;14.346;2023-06-14T10:36:30;100357.38;;;16.91;73.88
29569;BME280;16501;51.462;14.346;2023-06-14T10:39:20;100396.50;;;17.10;71.57
29569;BME280;16501;51.462;14.346;2023-06-14T10:41:55;100401.91;;;17.02;71.30
29569;BME280;16501;51.462;14.346;2023-06-14T10:46:52;100407.31;;;16.94;71.35
29569;BME280;16501;51.462;14.346;2023-06-14T10:49:18;100399.84;;;16.86;71.89
29569;BME280;16501;51.462;14.346;2023-06-14T10:51:46;100395.97;;;16.89;72.48
29569;BME280;16501;51.462;14.346;2023-06-14T10:54:15;100400.38;;;17.01;74.46
29569;BME280;16501;51.462;14.346;2023-06-14T10:56:50;100402.44;;;17.06;72.33
29569;BME280;16501;51.462;14.346;2023-06-14T10:59:17;100406.03;;;16.90;71.28
29569;BME280;16501;51.462;14.346;2023-06-14T11:04:52;100399.84;;;16.86;72.94
29569;BME280;16501;51.462;14.346;2023-06-14T11:10:37;100394.97;;;16.98;72.00
29569;BME280;16501;51.462;14.346;2023-06-14T11:13:04;100374.38;;;16.91;71.36
29569;BME280;16501;51.462;14.346;2023-06-14T11:15:30;100374.09;;;16.89;72.06
29569;BME280;16501;51.462;14.346;2023-06-14T11:17:56;100399.84;;;17.25;73.62
29569;BME280;16501;51.462;14.346;2023-06-14T11:20:25;100409.09;;;17.37;72.46
29569;BME280;16501;51.462;14.346;2023-06-14T11:22:51;100401.38;;;17.38;71.93
29569;BME280;16501;51.462;14.346;2023-06-14T11:25:17;100393.66;;;17.38;72.31
29569;BME280;16501;51.462;14.346;2023-06-14T11:27:42;100395.69;;;17.43;73.88
29569;BME280;16501;51.462;14.346;2023-06-14T11:30:08;100364.28;;;17.30;73.67
29569;BME280;16501;51.462;14.346;2023-06-14T11:32:35;100373.81;;;17.27;70.82
29569;BME280;16501;51.462;14.346;2023-06-14T11:35:02;100388.50;;;17.42;69.92
29569;BME280;16501;51.462;14.346;2023-06-14T11:37:29;100373.94;;;17.80;69.96
29569;BME280;16501;51.462;14.346;2023-06-14T11:39:59;100369.69;;;18.20;67.65
29569;BME280;16501;51.462;14.346;2023-06-14T11:42:26;100373.84;;;18.55;67.56
29569;BME280;16501;51.462;14.346;2023-06-14T11:44:53;100375.97;;;18.85;64.91
29569;BME280;16501;51.462;14.346;2023-06-14T11:47:18;100390.06;;;19.02;63.52
29569;BME280;16501;51.462;14.346;2023-06-14T11:49:44;100362.41;;;19.02;63.38
29569;BME280;16501;51.462;14.346;2023-06-14T11:52:09;100348.13;;;19.08;62.10
29569;BME280;16501;51.462;14.346;2023-06-14T11:54:34;100354.03;;;19.16;61.46
29569;BME280;16501;51.462;14.346;2023-06-14T11:57:00;100383.09;;;19.52;60.64
29569;BME280;16501;51.462;14.346;2023-06-14T11:59:25;100362.53;;;19.65;59.63
29569;BME280;16501;51.462;14.346;2023-06-14T12:01:55;100394.44;;;19.58;58.43
29569;BME280;16501;51.462;14.346;2023-06-14T12:04:24;100360.91;;;19.51;60.29
29569;BME280;16501;51.462;14.346;2023-06-14T12:06:50;100352.38;;;19.75;60.00
29569;BME280;16501;51.462;14.346;2023-06-14T12:09:18;100357.25;;;20.00;58.17
29569;BME280;16501;51.462;14.346;2023-06-14T12:11:44;100329.53;;;19.81;57.04
29569;BME280;16501;51.462;14.346;2023-06-14T12:14:10;100357.78;;;20.17;57.75
29569;BME280;16501;51.462;14.346;2023-06-14T12:16:38;100359.78;;;20.22;57.78
29569;BME280;16501;51.462;14.346;2023-06-14T12:19:16;100346.13;;;20.34;55.11
29569;BME280;16501;51.462;14.346;2023-06-14T12:21:45;100349.16;;;20.42;53.10
29569;BME280;16501;51.462;14.346;2023-06-14T12:24:13;100348.63;;;20.05;52.99
29569;BME280;16501;51.462;14.346;2023-06-14T12:26:39;100334.84;;;19.90;53.96
29569;BME280;16501;51.462;14.346;2023-06-14T12:29:08;100351.84;;;19.96;54.15
29569;BME280;16501;51.462;14.346;2023-06-14T12:31:33;100283.75;;;19.60;55.03
29569;BME280;16501;51.462;14.346;2023-06-14T12:33:59;100344.22;;;20.23;55.11
29569;BME280;16501;51.462;14.346;2023-06-14T12:36:25;100329.97;;;20.42;53.54
29569;BME280;16501;51.462;14.346;2023-06-14T12:38:51;100352.88;;;20.69;52.41
29569;BME280;16501;51.462;14.346;2023-06-14T12:41:19;100331.25;;;20.60;51.47
29569;BME280;16501;51.462;14.346;2023-06-14T12:43:46;100308.41;;;20.66;50.67
29569;BME280;16501;51.462;14.346;2023-06-14T12:46:11;100302.06;;;20.73;49.09
29569;BME280;16501;51.462;14.346;2023-06-14T12:48:36;100307.03;;;20.86;50.57
29569;BME280;16501;51.462;14.346;2023-06-14T12:51:01;100318.88;;;20.90;49.70
29569;BME280;16501;51.462;14.346;2023-06-14T12:53:27;100292.44;;;20.89;49.99